sensor_id;sensor_type;location;lat;lon;timestamp;temperature;humidity
23609;DHT22;11982;50.810;4.442;2023-06-01T00:01:59;14.80;99.90
23609;DHT22;11982;50.810;4.442;2023-06-01T00:04:24;14.80;99.90
23609;DHT22;11982;50.810;4.442;2023-06-01T00:06:50;14.70;99.90
23609;DHT22;11982;50.810;4.442;2023-06-01T00:09:16;14.60;99.90
23609;DHT22;11982;50.810;4.442;2023-06-01T00:11:43;14.60;99.90
23609;DHT22;11982;50.810;4.442;2023-06-01T00:14:08;14.50;99.90
23609;DHT22;11982;50.810;4.442;2023-06-01T00:16:34;14.50;99.90
23609;DHT22;11982;50.810;4.442;2023-06-01T00:19:02;14.40;99.90
23609;DHT22;11982;50.810;4.442;2023-06-01T00:21:29;14.40;99.90
23609;DHT22;11982;50.810;4.442;2023-06-01T00:23:57;14.40;99.90
23609;DHT22;11982;50.810;4.442;2023-06-01T00:26:22;14.30;99.90
23609;DHT22;11982;50.810;4.442;2023-06-01T00:28:48;14.30;99.90
23609;DHT22;11982;50.810;4.442;2023-06-01T00:31:14;14.30;99.90
23609;DHT22;11982;50.810;4.442;2023-06-01T00:33:40;14.20;99.90
23609;DHT22;11982;50.810;4.442;2023-06-01T00:36:06;14.20;99.90
23609;DHT22;11982;50.810;4.442;2023-06-01T00:38:31;14.10;99.90
23609;DHT22;11982;50.810;4.442;2023-06-01T00:40:57;14.10;99.90
23609;DHT22;11982;50.810;4.442;2023-06-01T00:43:23;14.00;99.90
23609;DHT22;11982;50.810;4.442;2023-06-01T00:45:48;13.90;99.90
23609;DHT22;11982;50.810;4.442;2023-06-01T00:48:15;13.90;99.90
23609;DHT22;11982;50.810;4.442;2023-06-01T00:50:42;13.90;99.90
23609;DHT22;11982;50.810;4.442;2023-06-01T00:53:15;13.80;99.90
23609;DHT22;11982;50.810;4.442;2023-06-01T00:55:42;13.80;99.90
23609;DHT22;11982;50.810;4.442;2023-06-01T00:58:07;13.70;99.90
23609;DHT22;11982;50.810;4.442;2023-06-01T01:00:33;13.60;99.90
23609;DHT22;11982;50.810;4.442;2023-06-01T01:02:59;13.60;99.90
23609;DHT22;11982;50.810;4.442;2023-06-01T01:05:34;13.70;99.90
23609;DHT22;11982;50.810;4.442;2023-06-01T01:11:10;13.60;99.90
23609;DHT22;11982;50.810;4.442;2023-06-01T01:16:35;13.50;99.90
23609;DHT22;11982;50.810;4.442;2023-06-01T01:21:37;13.50;99.90
23609;DHT22;11982;50.810;4.442;2023-06-01T01:30:07;13.30;99.90
23609;DHT22;11982;50.810;4.442;2023-06-01T01:32:35;13.30;99.90
23609;DHT22;11982;50.810;4.442;2023-06-01T01:35:04;13.30;99.90
23609;DHT22;11982;50.810;4.442;2023-06-01T01:37:32;13.30;99.90
23609;DHT22;11982;50.810;4.442;2023-06-01T01:39:58;13.20;99.90
23609;DHT22;11982;50.810;4.442;2023-06-01T01:42:26;13.10;99.90
23609;DHT22;11982;50.810;4.442;2023-06-01T01:44:52;13.10;99.90
23609;DHT22;11982;50.810;4.442;2023-06-01T01:47:31;13.10;99.90
23609;DHT22;11982;50.810;4.442;2023-06-01T01:50:05;13.10;99.90
23609;DHT22;11982;50.810;4.442;2023-06-01T01:52:37;13.00;99.90
23609;DHT22;11982;50.810;4.442;2023-06-01T01:55:04;13.00;99.90
23609;DHT22;11982;50.810;4.442;2023-06-01T01:57:31;12.90;99.90
23609;DHT22;11982;50.810;4.442;2023-06-01T02:00:00;12.90;99.90
23609;DHT22;11982;50.810;4.442;2023-06-01T02:02:27;12.90;99.90
23609;DHT22;11982;50.810;4.442;2023-06-01T02:04:53;12.90;99.90
23609;DHT22;11982;50.810;4.442;2023-06-01T02:07:18;12.80;99.90
23609;DHT22;11982;50.810;4.442;2023-06-01T02:09:44;12.80;99.90
23609;DHT22;11982;50.810;4.442;2023-06-01T02:12:10;12.80;99.90
23609;DHT22;11982;50.810;4.442;2023-06-01T02:14:36;12.70;99.90
23609;DHT22;11982;50.810;4.442;2023-06-01T02:17:01;12.70;99.90
23609;DHT22;11982;50.810;4.442;2023-06-01T02:19:28;12.70;99.90
23609;DHT22;11982;50.810;4.442;2023-06-01T02:21:54;12.70;99.90
23609;DHT22;11982;50.810;4.442;2023-06-01T02:24:19;12.60;99.90
23609;DHT22;11982;50.810;4.442;2023-06-01T02:26:46;12.60;99.90
23609;DHT22;11982;50.810;4.442;2023-06-01T02:29:14;12.50;99.90
23609;DHT22;11982;50.810;4.442;2023-06-01T02:31:40;12.50;99.90
23609;DHT22;11982;50.810;4.442;2023-06-01T02:34:06;12.50;99.90
23609;DHT22;11982;50.810;4.442;2023-06-01T02:36:32;12.50;99.90
23609;DHT22;11982;50.810;4.442;2023-06-01T02:38:58;12.50;99.90
23609;DHT22;11982;50.810;4.442;2023-06-01T02:41:24;12.50;99.90
23609;DHT22;11982;50.810;4.442;2023-06-01T02:43:51;12.40;99.90
23609;DHT22;11982;50.810;4.442;2023-06-01T02:46:20;12.40;99.90
23609;DHT22;11982;50.810;4.442;2023-06-01T02:48:46;12.30;99.90
23609;DHT22;11982;50.810;4.442;2023-06-01T02:51:12;12.30;99.90
23609;DHT22;11982;50.810;4.442;2023-06-01T02:53:41;12.20;99.90
23609;DHT22;11982;50.810;4.442;2023-06-01T02:56:07;12.20;99.90
23609;DHT22;11982;50.810;4.442;2023-06-01T02:58:33;12.20;99.90
23609;DHT22;11982;50.810;4.442;2023-06-01T03:00:59;12.20;99.90
23609;DHT22;11982;50.810;4.442;2023-06-01T03:03:25;12.10;99.90
23609;DHT22;11982;50.810;4.442;2023-06-01T03:05:51;12.10;99.90
23609;DHT22;11982;50.810;4.442;2023-06-01T03:08:17;12.10;99.90
23609;DHT22;11982;50.810;4.442;2023-06-01T03:10:43;12.10;99.90
23609;DHT22;11982;50.810;4.442;2023-06-01T03:13:09;12.00;99.90
23609;DHT22;11982;50.810;4.442;2023-06-01T03:15:35;12.00;99.90
23609;DHT22;11982;50.810;4.442;2023-06-01T03:18:05;12.00;99.90
23609;DHT22;11982;50.810;4.442;2023-06-01T03:20:32;12.00;99.90
23609;DHT22;11982;50.810;4.442;2023-06-01T03:22:58;12.00;99.90
23609;DHT22;11982;50.810;4.442;2023-06-01T03:25:24;11.90;99.90
23609;DHT22;11982;50.810;4.442;2023-06-01T03:27:50;11.80;99.90
23609;DHT22;11982;50.810;4.442;2023-06-01T03:30:16;11.80;99.90
23609;DHT22;11982;50.810;4.442;2023-06-01T03:32:43;11.80;99.90
23609;DHT22;11982;50.810;4.442;2023-06-01T03:35:10;11.80;99.90
23609;DHT22;11982;50.810;4.442;2023-06-01T03:37:42;11.70;99.90
23609;DHT22;11982;50.810;4.442;2023-06-01T03:40:09;11.70;99.90
23609;DHT22;11982;50.810;4.442;2023-06-01T03:42:38;11.60;99.90
23609;DHT22;11982;50.810;4.442;2023-06-01T03:45:05;11.60;99.90
23609;DHT22;11982;50.810;4.442;2023-06-01T03:47:31;11.60;99.90
23609;DHT22;11982;50.810;4.442;2023-06-01T03:49:57;11.60;99.90
23609;DHT22;11982;50.810;4.442;2023-06-01T03:52:24;11.60;99.90
23609;DHT22;11982;50.810;4.442;2023-06-01T03:54:50;11.60;99.90
23609;DHT22;11982;50.810;4.442;2023-06-01T03:57:16;11.60;99.90
23609;DHT22;11982;50.810;4.442;2023-06-01T03:59:42;11.70;99.90
23609;DHT22;11982;50.810;4.442;2023-06-01T04:02:07;11.70;99.90
23609;DHT22;11982;50.810;4.442;2023-06-01T04:04:35;11.70;99.90
23609;DHT22;11982;50.810;4.442;2023-06-01T04:07:01;11.70;99.90
23609;DHT22;11982;50.810;4.442;2023-06-01T04:09:29;11.70;99.90
23609;DHT22;11982;50.810;4.442;2023-06-01T04:11:55;11.70;99.90
23609;DHT22;11982;50.810;4.442;2023-06-01T04:14:21;11.80;99.90
23609;DHT22;11982;50.810;4.442;2023-06-01T04:16:47;11.70;99.90
23609;DHT22;11982;50.810;4.442;2023-06-01T04:19:13;11.80;99.90
23609;DHT22;11982;50.810;4.442;2023-06-01T04:21:38;11.80;99.90
23609;DHT22;11982;50.810;4.442;2023-06-01T04:24:04;11.80;99.90
23609;DHT22;11982;50.810;4.442;2023-06-01T04:26:30;11.80;99.90
23609;DHT22;11982;50.810;4.442;2023-06-01T04:28:58;11.70;99.90
23609;DHT22;11982;50.810;4.442;2023-06-01T04:31:24;11.80;99.90
23609;DHT22;11982;50.810;4.442;2023-06-01T04:33:50;11.90;99.90
23609;DHT22;11982;50.810;4.442;2023-06-01T04:36:24;11.90;99.90
23609;DHT22;11982;50.810;4.442;2023-06-01T04:38:50;11.90;99.90
23609;DHT22;11982;50.810;4.442;2023-06-01T04:41:20;12.00;99.90
23609;DHT22;11982;50.810;4.442;2023-06-01T04:43:47;12.10;99.90
23609;DHT22;11982;50.810;4.442;2023-06-01T04:46:21;12.10;99.90
23609;DHT22;11982;50.810;4.442;2023-06-01T04:48:49;12.00;99.90
23609;DHT22;11982;50.810;4.442;2023-06-01T04:51:14;12.00;99.90
23609;DHT22;11982;50.810;4.442;2023-06-01T04:53:48;12.00;99.90
23609;DHT22;11982;50.810;4.442;2023-06-01T04:58:44;12.40;99.90
23609;DHT22;11982;50.810;4.442;2023-06-01T05:01:10;12.30;99.90
23609;DHT22;11982;50.810;4.442;2023-06-01T05:03:44;12.40;99.90
23609;DHT22;11982;50.810;4.442;2023-06-01T05:06:11;12.40;99.90
23609;DHT22;11982;50.810;4.442;2023-06-01T05:08:38;12.50;99.90
23609;DHT22;11982;50.810;4.442;2023-06-01T05:11:04;12.60;99.90
23609;DHT22;11982;50.810;4.442;2023-06-01T05:13:33;12.50;99.90
23609;DHT22;11982;50.810;4.442;2023-06-01T05:15:59;12.40;99.90
23609;DHT22;11982;50.810;4.442;2023-06-01T05:18:25;12.40;99.90
23609;DHT22;11982;50.810;4.442;2023-06-01T05:20:50;12.50;99.90
23609;DHT22;11982;50.810;4.442;2023-06-01T05:23:17;12.30;99.90
23609;DHT22;11982;50.810;4.442;2023-06-01T05:25:42;12.40;99.90
23609;DHT22;11982;50.810;4.442;2023-06-01T05:28:08;12.40;99.90
23609;DHT22;11982;50.810;4.442;2023-06-01T05:30:34;12.30;99.90
23609;DHT22;11982;50.810;4.442;2023-06-01T05:33:00;12.50;99.90
23609;DHT22;11982;50.810;4.442;2023-06-01T05:35:26;12.60;99.90
23609;DHT22;11982;50.810;4.442;2023-06-01T05:37:52;12.80;99.90
23609;DHT22;11982;50.810;4.442;2023-06-01T05:40:17;12.90;99.90
23609;DHT22;11982;50.810;4.442;2023-06-01T05:42:43;12.70;99.90
23609;DHT22;11982;50.810;4.442;2023-06-01T05:45:09;12.90;99.90
23609;DHT22;11982;50.810;4.442;2023-06-01T05:47:35;13.20;99.90
23609;DHT22;11982;50.810;4.442;2023-06-01T05:50:00;13.20;99.90
23609;DHT22;11982;50.810;4.442;2023-06-01T05:52:27;13.00;99.90
23609;DHT22;11982;50.810;4.442;2023-06-01T05:54:52;13.00;99.90
23609;DHT22;11982;50.810;4.442;2023-06-01T05:57:20;13.00;99.90
23609;DHT22;11982;50.810;4.442;2023-06-01T05:59:46;13.00;99.90
23609;DHT22;11982;50.810;4.442;2023-06-01T06:02:13;12.90;99.90
23609;DHT22;11982;50.810;4.442;2023-06-01T06:04:42;13.10;99.90
23609;DHT22;11982;50.810;4.442;2023-06-01T06:07:09;13.00;99.90
23609;DHT22;11982;50.810;4.442;2023-06-01T06:09:35;13.00;99.90
23609;DHT22;11982;50.810;4.442;2023-06-01T06:12:01;12.90;99.90
23609;DHT22;11982;50.810;4.442;2023-06-01T06:14:27;13.00;99.90
23609;DHT22;11982;50.810;4.442;2023-06-01T06:16:52;13.10;99.90
23609;DHT22;11982;50.810;4.442;2023-06-01T06:19:18;13.10;99.90
23609;DHT22;11982;50.810;4.442;2023-06-01T06:21:44;13.10;99.90
23609;DHT22;11982;50.810;4.442;2023-06-01T06:24:10;13.30;99.90
23609;DHT22;11982;50.810;4.442;2023-06-01T06:26:37;13.40;99.90
23609;DHT22;11982;50.810;4.442;2023-06-01T06:29:03;13.50;99.90
23609;DHT22;11982;50.810;4.442;2023-06-01T06:31:28;13.30;99.90
23609;DHT22;11982;50.810;4.442;2023-06-01T06:33:54;13.40;99.90
23609;DHT22;11982;50.810;4.442;2023-06-01T06:36:20;13.50;99.90
23609;DHT22;11982;50.810;4.442;2023-06-01T06:38:46;13.30;99.90
23609;DHT22;11982;50.810;4.442;2023-06-01T06:41:12;13.60;99.90
23609;DHT22;11982;50.810;4.442;2023-06-01T06:43:38;13.70;99.90
23609;DHT22;11982;50.810;4.442;2023-06-01T06:46:04;13.90;99.90
23609;DHT22;11982;50.810;4.442;2023-06-01T06:48:29;13.80;99.90
23609;DHT22;11982;50.810;4.442;2023-06-01T06:50:56;13.90;99.90
23609;DHT22;11982;50.810;4.442;2023-06-01T06:53:21;13.70;99.90
23609;DHT22;11982;50.810;4.442;2023-06-01T06:55:47;13.40;99.90
23609;DHT22;11982;50.810;4.442;2023-06-01T06:58:13;13.60;99.90
23609;DHT22;11982;50.810;4.442;2023-06-01T07:00:39;13.60;99.90
23609;DHT22;11982;50.810;4.442;2023-06-01T07:03:06;13.80;99.90
23609;DHT22;11982;50.810;4.442;2023-06-01T07:05:32;13.90;99.90
23609;DHT22;11982;50.810;4.442;2023-06-01T07:07:58;14.00;99.90
23609;DHT22;11982;50.810;4.442;2023-06-01T07:10:28;14.10;99.90
23609;DHT22;11982;50.810;4.442;2023-06-01T07:12:53;13.80;99.90
23609;DHT22;11982;50.810;4.442;2023-06-01T07:15:19;14.00;99.90
23609;DHT22;11982;50.810;4.442;2023-06-01T07:17:45;13.90;99.90
23609;DHT22;11982;50.810;4.442;2023-06-01T07:20:11;13.80;99.90
23609;DHT22;11982;50.810;4.442;2023-06-01T07:22:38;14.10;99.90
23609;DHT22;11982;50.810;4.442;2023-06-01T07:25:04;14.20;99.90
23609;DHT22;11982;50.810;4.442;2023-06-01T07:27:30;14.10;99.90
23609;DHT22;11982;50.810;4.442;2023-06-01T07:29:57;14.20;99.90
23609;DHT22;11982;50.810;4.442;2023-06-01T07:32:23;14.50;99.90
23609;DHT22;11982;50.810;4.442;2023-06-01T07:34:50;14.40;99.90
23609;DHT22;11982;50.810;4.442;2023-06-01T07:37:16;14.60;99.90
23609;DHT22;11982;50.810;4.442;2023-06-01T07:39:47;14.70;99.90
23609;DHT22;11982;50.810;4.442;2023-06-01T07:42:13;14.90;99.90
23609;DHT22;11982;50.810;4.442;2023-06-01T07:44:40;14.70;99.90
23609;DHT22;11982;50.810;4.442;2023-06-01T07:47:06;14.80;99.90
23609;DHT22;11982;50.810;4.442;2023-06-01T07:49:32;15.10;99.90
23609;DHT22;11982;50.810;4.442;2023-06-01T07:52:01;14.90;99.90
23609;DHT22;11982;50.810;4.442;2023-06-01T07:54:27;15.00;99.90
23609;DHT22;11982;50.810;4.442;2023-06-01T07:56:52;15.10;99.90
23609;DHT22;11982;50.810;4.442;2023-06-01T07:59:19;14.60;99.90
23609;DHT22;11982;50.810;4.442;2023-06-01T08:01:48;14.80;99.90
23609;DHT22;11982;50.810;4.442;2023-06-01T08:04:14;15.00;99.90
23609;DHT22;11982;50.810;4.442;2023-06-01T08:06:40;14.80;99.90
23609;DHT22;11982;50.810;4.442;2023-06-01T08:09:06;14.70;99.90
23609;DHT22;11982;50.810;4.442;2023-06-01T08:11:32;14.40;99.90
23609;DHT22;11982;50.810;4.442;2023-06-01T08:13:59;14.30;99.90
23609;DHT22;11982;50.810;4.442;2023-06-01T08:16:29;14.50;99.90
23609;DHT22;11982;50.810;4.442;2023-06-01T08:18:56;14.60;99.90
23609;DHT22;11982;50.810;4.442;2023-06-01T08:21:22;14.60;99.90
23609;DHT22;11982;50.810;4.442;2023-06-01T08:23:49;14.70;99.90
23609;DHT22;11982;50.810;4.442;2023-06-01T08:26:18;14.70;99.90
23609;DHT22;11982;50.810;4.442;2023-06-01T08:28:44;14.80;99.90
23609;DHT22;11982;50.810;4.442;2023-06-01T08:31:17;14.90;99.90
23609;DHT22;11982;50.810;4.442;2023-06-01T08:33:43;15.10;99.90
23609;DHT22;11982;50.810;4.442;2023-06-01T08:36:09;15.00;99.90
23609;DHT22;11982;50.810;4.442;2023-06-01T08:38:35;15.10;99.90
23609;DHT22;11982;50.810;4.442;2023-06-01T08:41:05;15.00;99.90
23609;DHT22;11982;50.810;4.442;2023-06-01T08:43:36;15.00;99.90
23609;DHT22;11982;50.810;4.442;2023-06-01T08:46:04;14.80;99.90
23609;DHT22;11982;50.810;4.442;2023-06-01T08:48:31;14.90;99.90
23609;DHT22;11982;50.810;4.442;2023-06-01T08:50:58;15.20;99.90
23609;DHT22;11982;50.810;4.442;2023-06-01T08:53:28;15.30;99.90
23609;DHT22;11982;50.810;4.442;2023-06-01T08:55:55;15.00;99.90
23609;DHT22;11982;50.810;4.442;2023-06-01T08:58:21;14.80;99.90
23609;DHT22;11982;50.810;4.442;2023-06-01T09:00:49;15.00;99.90
23609;DHT22;11982;50.810;4.442;2023-06-01T09:03:15;15.30;99.90
23609;DHT22;11982;50.810;4.442;2023-06-01T09:05:41;15.60;99.90
23609;DHT22;11982;50.810;4.442;2023-06-01T09:08:08;15.70;99.90
23609;DHT22;11982;50.810;4.442;2023-06-01T09:10:35;15.60;99.90
23609;DHT22;11982;50.810;4.442;2023-06-01T09:13:01;15.60;99.90
23609;DHT22;11982;50.810;4.442;2023-06-01T09:15:27;15.60;99.90
23609;DHT22;11982;50.810;4.442;2023-06-01T09:18:08;15.60;99.90
23609;DHT22;11982;50.810;4.442;2023-06-01T09:20:35;15.70;99.90
23609;DHT22;11982;50.810;4.442;2023-06-01T09:23:02;15.90;99.90
23609;DHT22;11982;50.810;4.442;2023-06-01T09:25:30;16.00;99.90
23609;DHT22;11982;50.810;4.442;2023-06-01T09:27:58;15.90;99.90
23609;DHT22;11982;50.810;4.442;2023-06-01T09:30:35;16.00;99.90
23609;DHT22;11982;50.810;4.442;2023-06-01T09:33:16;16.20;99.90
23609;DHT22;11982;50.810;4.442;2023-06-01T09:35:47;16.20;99.90
23609;DHT22;11982;50.810;4.442;2023-06-01T09:38:21;16.30;99.90
23609;DHT22;11982;50.810;4.442;2023-06-01T09:40:56;16.30;99.90
23609;DHT22;11982;50.810;4.442;2023-06-01T09:43:23;16.40;99.90
23609;DHT22;11982;50.810;4.442;2023-06-01T09:46:05;16.60;99.90
23609;DHT22;11982;50.810;4.442;2023-06-01T09:48:31;16.70;99.90
23609;DHT22;11982;50.810;4.442;2023-06-01T09:50:57;16.70;99.90
23609;DHT22;11982;50.810;4.442;2023-06-01T09:53:22;16.60;99.90
23609;DHT22;11982;50.810;4.442;2023-06-01T09:56:01;16.60;99.90
23609;DHT22;11982;50.810;4.442;2023-06-01T09:58:27;16.80;99.90
23609;DHT22;11982;50.810;4.442;2023-06-01T10:00:53;16.90;99.90
23609;DHT22;11982;50.810;4.442;2023-06-01T10:03:21;16.90;99.90
23609;DHT22;11982;50.810;4.442;2023-06-01T10:05:47;17.00;99.90
23609;DHT22;11982;50.810;4.442;2023-06-01T10:08:15;17.00;99.90
23609;DHT22;11982;50.810;4.442;2023-06-01T10:10:47;17.00;99.90
23609;DHT22;11982;50.810;4.442;2023-06-01T10:13:14;17.10;99.90
23609;DHT22;11982;50.810;4.442;2023-06-01T10:15:40;17.30;99.90
23609;DHT22;11982;50.810;4.442;2023-06-01T10:18:06;17.50;99.90
23609;DHT22;11982;50.810;4.442;2023-06-01T10:20:36;17.50;99.90
23609;DHT22;11982;50.810;4.442;2023-06-01T10:23:03;17.60;99.90
23609;DHT22;11982;50.810;4.442;2023-06-01T10:25:45;17.70;99.90
23609;DHT22;11982;50.810;4.442;2023-06-01T10:28:13;17.80;99.90
23609;DHT22;11982;50.810;4.442;2023-06-01T10:30:39;17.90;99.90
23609;DHT22;11982;50.810;4.442;2023-06-01T10:33:05;18.00;99.90
23609;DHT22;11982;50.810;4.442;2023-06-01T10:40:40;18.50;99.90
23609;DHT22;11982;50.810;4.442;2023-06-01T10:43:06;18.50;99.90
23609;DHT22;11982;50.810;4.442;2023-06-01T10:48:01;18.70;99.90
23609;DHT22;11982;50.810;4.442;2023-06-01T10:50:27;19.00;99.90
23609;DHT22;11982;50.810;4.442;2023-06-01T10:52:54;19.00;99.90
23609;DHT22;11982;50.810;4.442;2023-06-01T10:55:25;19.00;99.90
23609;DHT22;11982;50.810;4.442;2023-06-01T10:57:51;18.90;99.90
23609;DHT22;11982;50.810;4.442;2023-06-01T11:00:24;18.90;99.90
23609;DHT22;11982;50.810;4.442;2023-06-01T11:03:02;19.00;99.90
23609;DHT22;11982;50.810;4.442;2023-06-01T11:05:47;19.10;99.90
23609;DHT22;11982;50.810;4.442;2023-06-01T11:13:21;19.30;99.90
23609;DHT22;11982;50.810;4.442;2023-06-01T11:19:05;19.60;99.90
23609;DHT22;11982;50.810;4.442;2023-06-01T11:21:37;19.70;99.90
23609;DHT22;11982;50.810;4.442;2023-06-01T11:24:15;19.90;99.90
23609;DHT22;11982;50.810;4.442;2023-06-01T11:26:43;20.10;99.90
23609;DHT22;11982;50.810;4.442;2023-06-01T11:29:23;19.80;99.90
23609;DHT22;11982;50.810;4.442;2023-06-01T11:32:00;20.10;99.90
23609;DHT22;11982;50.810;4.442;2023-06-01T11:34:33;20.10;99.90
23609;DHT22;11982;50.810;4.442;2023-06-01T11:37:00;19.90;99.90
23609;DHT22;11982;50.810;4.442;2023-06-01T11:39:27;20.00;99.90
23609;DHT22;11982;50.810;4.442;2023-06-01T11:44:33;20.30;99.90
23609;DHT22;11982;50.810;4.442;2023-06-01T11:46:59;20.40;99.90
23609;DHT22;11982;50.810;4.442;2023-06-01T11:49:26;20.40;99.90
23609;DHT22;11982;50.810;4.442;2023-06-01T11:51:53;20.50;99.90
23609;DHT22;11982;50.810;4.442;2023-06-01T11:54:26;20.50;99.90
23609;DHT22;11982;50.810;4.442;2023-06-01T11:56:53;20.50;99.90
23609;DHT22;11982;50.810;4.442;2023-06-01T11:59:19;20.40;99.90
23609;DHT22;11982;50.810;4.442;2023-06-01T12:01:49;20.50;99.90
23609;DHT22;11982;50.810;4.442;2023-06-01T12:04:19;20.80;99.90
23609;DHT22;11982;50.810;4.442;2023-06-01T12:06:45;20.90;99.90
23609;DHT22;11982;50.810;4.442;2023-06-01T12:09:15;20.80;99.90
23609;DHT22;11982;50.810;4.442;2023-06-01T12:11:42;20.90;99.90
23609;DHT22;11982;50.810;4.442;2023-06-01T12:14:10;21.00;99.90
23609;DHT22;11982;50.810;4.442;2023-06-01T12:19:19;21.10;99.90
23609;DHT22;11982;50.810;4.442;2023-06-01T12:21:52;21.10;99.90
23609;DHT22;11982;50.810;4.442;2023-06-01T12:24:28;21.10;99.90
23609;DHT22;11982;50.810;4.442;2023-06-01T12:26:56;21.10;99.90
23609;DHT22;11982;50.810;4.442;2023-06-01T12:29:54;21.40;99.90
23609;DHT22;11982;50.810;4.442;2023-06-01T12:32:23;21.50;99.90
23609;DHT22;11982;50.810;4.442;2023-06-01T12:35:07;21.80;99.90
23609;DHT22;11982;50.810;4.442;2023-06-01T12:37:33;21.60;99.90
23609;DHT22;11982;50.810;4.442;2023-06-01T12:40:00;21.60;99.90
23609;DHT22;11982;50.810;4.442;2023-06-01T12:42:35;21.70;99.90
23609;DHT22;11982;50.810;4.442;2023-06-01T12:45:02;21.60;99.90
23609;DHT22;11982;50.810;4.442;2023-06-01T12:47:48;21.90;99.90
23609;DHT22;11982;50.810;4.442;2023-06-01T12:50:14;22.00;99.90
23609;DHT22;11982;50.810;4.442;2023-06-01T12:52:40;21.90;99.90
23609;DHT22;11982;50.810;4.442;2023-06-01T12:55:09;22.20;99.90
23609;DHT22;11982;50.810;4.442;2023-06-01T12:57:36;22.50;99.90
23609;DHT22;11982;50.810;4.442;2023-06-01T13:00:03;22.40;99.90
23609;DHT22;11982;50.810;4.442;2023-06-01T13:02:30;22.20;99.90
23609;DHT22;11982;50.810;4.442;2023-06-01T13:04:56;22.20;99.90
23609;DHT22;11982;50.810;4.442;2023-06-01T13:07:24;22.20;99.90
23609;DHT22;11982;50.810;4.442;2023-06-01T13:09:50;22.40;99.90
23609;DHT22;11982;50.810;4.442;2023-06-01T13:12:17;22.80;99.90
23609;DHT22;11982;50.810;4.442;2023-06-01T13:14:43;22.80;99.90
23609;DHT22;11982;50.810;4.442;2023-06-01T13:17:09;23.20;99.90
23609;DHT22;11982;50.810;4.442;2023-06-01T13:19:35;23.50;99.90
23609;DHT22;11982;50.810;4.442;2023-06-01T13:22:01;23.70;99.90
23609;DHT22;11982;50.810;4.442;2023-06-01T13:24:26;23.40;99.90
23609;DHT22;11982;50.810;4.442;2023-06-01T13:26:52;23.50;99.90
23609;DHT22;11982;50.810;4.442;2023-06-01T13:29:18;24.20;99.90
23609;DHT22;11982;50.810;4.442;2023-06-01T13:31:44;24.00;99.90
23609;DHT22;11982;50.810;4.442;2023-06-01T13:34:10;23.90;99.90
23609;DHT22;11982;50.810;4.442;2023-06-01T13:36:36;23.80;99.90
23609;DHT22;11982;50.810;4.442;2023-06-01T13:39:02;24.30;99.90
23609;DHT22;11982;50.810;4.442;2023-06-01T13:41:29;23.90;99.90
23609;DHT22;11982;50.810;4.442;2023-06-01T13:43:55;23.80;99.90
23609;DHT22;11982;50.810;4.442;2023-06-01T13:46:21;23.90;99.90
23609;DHT22;11982;50.810;4.442;2023-06-01T13:48:46;24.10;99.90
23609;DHT22;11982;50.810;4.442;2023-06-01T13:51:12;24.70;99.90
23609;DHT22;11982;50.810;4.442;2023-06-01T13:53:38;24.90;99.90
23609;DHT22;11982;50.810;4.442;2023-06-01T13:56:03;25.10;99.90
23609;DHT22;11982;50.810;4.442;2023-06-01T13:58:29;24.70;99.90
23609;DHT22;11982;50.810;4.442;2023-06-01T14:00:57;24.90;99.90
23609;DHT22;11982;50.810;4.442;2023-06-01T14:03:22;25.30;99.90
23609;DHT22;11982;50.810;4.442;2023-06-01T14:05:48;25.50;99.90
23609;DHT22;11982;50.810;4.442;2023-06-01T14:08:14;26.00;99.90
23609;DHT22;11982;50.810;4.442;2023-06-01T14:10:40;25.70;98.20
23609;DHT22;11982;50.810;4.442;2023-06-01T14:13:06;25.10;99.40
23609;DHT22;11982;50.810;4.442;2023-06-01T14:15:32;25.20;99.90
23609;DHT22;11982;50.810;4.442;2023-06-01T14:17:57;25.10;99.70
23609;DHT22;11982;50.810;4.442;2023-06-01T14:20:23;25.10;99.50
23609;DHT22;11982;50.810;4.442;2023-06-01T14:22:49;25.40;99.90
23609;DHT22;11982;50.810;4.442;2023-06-01T14:25:15;25.20;99.20
23609;DHT22;11982;50.810;4.442;2023-06-01T14:27:41;25.30;98.60
23609;DHT22;11982;50.810;4.442;2023-06-01T14:30:07;25.70;97.80
23609;DHT22;11982;50.810;4.442;2023-06-01T14:32:33;26.30;97.60
23609;DHT22;11982;50.810;4.442;2023-06-01T14:34:59;26.50;97.40
23609;DHT22;11982;50.810;4.442;2023-06-01T14:37:25;26.30;96.70
23609;DHT22;11982;50.810;4.442;2023-06-01T14:39:50;26.60;97.00
23609;DHT22;11982;50.810;4.442;2023-06-01T14:42:17;26.00;96.50
23609;DHT22;11982;50.810;4.442;2023-06-01T14:44:43;25.50;96.80
23609;DHT22;11982;50.810;4.442;2023-06-01T14:47:09;25.40;97.20
23609;DHT22;11982;50.810;4.442;2023-06-01T14:49:37;25.20;96.20
23609;DHT22;11982;50.810;4.442;2023-06-01T14:52:03;25.40;97.20
23609;DHT22;11982;50.810;4.442;2023-06-01T14:54:29;25.60;97.50
23609;DHT22;11982;50.810;4.442;2023-06-01T14:56:54;25.70;97.50
23609;DHT22;11982;50.810;4.442;2023-06-01T14:59:20;26.10;97.60
23609;DHT22;11982;50.810;4.442;2023-06-01T15:01:46;25.90;97.80
23609;DHT22;11982;50.810;4.442;2023-06-01T15:04:12;26.10;98.10
23609;DHT22;11982;50.810;4.442;2023-06-01T15:06:37;26.60;97.70
23609;DHT22;11982;50.810;4.442;2023-06-01T15:09:03;26.40;97.10
23609;DHT22;11982;50.810;4.442;2023-06-01T15:11:29;26.10;96.40
23609;DHT22;11982;50.810;4.442;2023-06-01T15:13:55;26.00;96.20
23609;DHT22;11982;50.810;4.442;2023-06-01T15:16:21;25.10;96.40
23609;DHT22;11982;50.810;4.442;2023-06-01T15:18:46;25.60;97.00
23609;DHT22;11982;50.810;4.442;2023-06-01T15:21:12;25.80;95.40
23609;DHT22;11982;50.810;4.442;2023-06-01T15:23:38;25.80;95.20
23609;DHT22;11982;50.810;4.442;2023-06-01T15:26:03;26.10;94.80
23609;DHT22;11982;50.810;4.442;2023-06-01T15:28:29;24.90;95.20
23609;DHT22;11982;50.810;4.442;2023-06-01T15:30:56;24.80;96.00
23609;DHT22;11982;50.810;4.442;2023-06-01T15:33:21;25.50;96.20
23609;DHT22;11982;50.810;4.442;2023-06-01T15:35:47;24.80;96.70
23609;DHT22;11982;50.810;4.442;2023-06-01T15:38:13;24.50;97.80
23609;DHT22;11982;50.810;4.442;2023-06-01T15:40:39;24.10;96.50
23609;DHT22;11982;50.810;4.442;2023-06-01T15:43:04;23.50;97.80
23609;DHT22;11982;50.810;4.442;2023-06-01T15:45:30;23.30;98.90
23609;DHT22;11982;50.810;4.442;2023-06-01T15:47:56;22.90;99.50
23609;DHT22;11982;50.810;4.442;2023-06-01T15:50:22;22.90;99.90
23609;DHT22;11982;50.810;4.442;2023-06-01T15:52:48;22.90;99.90
23609;DHT22;11982;50.810;4.442;2023-06-01T15:55:14;22.80;99.90
23609;DHT22;11982;50.810;4.442;2023-06-01T15:57:41;22.80;99.90
23609;DHT22;11982;50.810;4.442;2023-06-01T16:00:07;22.70;99.90
23609;DHT22;11982;50.810;4.442;2023-06-01T16:02:33;22.70;99.90
23609;DHT22;11982;50.810;4.442;2023-06-01T16:04:59;22.90;99.90
23609;DHT22;11982;50.810;4.442;2023-06-01T16:07:24;23.00;99.90
23609;DHT22;11982;50.810;4.442;2023-06-01T16:09:50;22.80;99.90